createdAt,value
2023-12-17T00:00:48.549Z,6.24
2023-12-17T00:06:13.499Z,6.23
2023-12-17T00:11:36.763Z,6.25
2023-12-17T00:16:59.615Z,6.23
2023-12-17T00:22:22.112Z,6.22
2023-12-17T00:27:44.480Z,6.21
2023-12-17T00:33:06.941Z,6.21
2023-12-17T00:38:29.475Z,6.21
2023-12-17T00:43:51.927Z,6.21
2023-12-17T00:49:14.452Z,6.19
2023-12-17T00:54:36.875Z,6.20
2023-12-17T00:59:59.368Z,6.22
2023-12-17T01:05:21.909Z,6.22
2023-12-17T01:10:44.535Z,6.25
2023-12-17T01:16:07.078Z,6.24
2023-12-17T01:21:29.534Z,6.29
2023-12-17T01:26:52.322Z,6.31
2023-12-17T01:32:14.723Z,6.33
2023-12-17T01:37:37.264Z,6.39
2023-12-17T01:42:59.953Z,6.42
2023-12-17T01:48:22.899Z,6.47
2023-12-17T01:53:46.967Z,6.51
2023-12-17T01:59:09.770Z,6.55
2023-12-17T02:04:34.183Z,6.60
2023-12-17T02:09:56.962Z,6.64
2023-12-17T02:15:20.237Z,6.67
2023-12-17T02:20:42.844Z,6.68
2023-12-17T02:26:05.641Z,6.70
2023-12-17T02:31:28.105Z,6.70
2023-12-17T02:36:50.460Z,6.69
2023-12-17T02:42:12.927Z,6.71
2023-12-17T02:47:35.437Z,6.74
2023-12-17T02:52:57.765Z,6.75
2023-12-17T02:58:20.157Z,6.78
2023-12-17T03:03:42.653Z,6.83
2023-12-17T03:09:05.098Z,6.88
2023-12-17T03:14:27.649Z,6.92
2023-12-17T03:19:50.670Z,6.91
2023-12-17T03:25:13.079Z,6.93
2023-12-17T03:30:36.192Z,6.94
2023-12-17T03:35:58.901Z,6.93
2023-12-17T03:41:29.463Z,6.92
2023-12-17T03:46:51.780Z,6.95
2023-12-17T03:52:15.513Z,6.95
2023-12-17T03:57:38.184Z,7.01
2023-12-17T04:03:01.332Z,7.03
2023-12-17T04:08:24.011Z,7.05
2023-12-17T04:13:46.533Z,7.08
2023-12-17T04:19:09.671Z,7.10
2023-12-17T04:24:32.318Z,7.11
2023-12-17T04:29:55.634Z,7.11
2023-12-17T04:35:18.462Z,7.13
2023-12-17T04:40:40.910Z,7.20
2023-12-17T04:46:04.582Z,7.22
2023-12-17T04:51:27.351Z,7.28
2023-12-17T04:56:50.482Z,7.35
2023-12-17T05:02:12.867Z,7.36
2023-12-17T05:07:35.226Z,7.40
2023-12-17T05:12:57.603Z,7.47
2023-12-17T05:18:20.816Z,7.48
2023-12-17T05:23:43.249Z,7.50
2023-12-17T05:29:05.593Z,7.55
2023-12-17T05:34:29.012Z,7.61
2023-12-17T05:39:51.577Z,7.66
2023-12-17T05:45:14.757Z,7.71
2023-12-17T05:50:37.198Z,7.72
2023-12-17T05:55:59.598Z,7.75
2023-12-17T06:01:22.023Z,7.78
2023-12-17T06:06:44.684Z,7.81
2023-12-17T06:12:07.217Z,7.86
2023-12-17T06:17:30.681Z,7.87
2023-12-17T06:22:54.200Z,7.88
2023-12-17T06:28:16.657Z,7.89
2023-12-17T06:33:39.144Z,7.90
2023-12-17T06:39:01.860Z,7.89
2023-12-17T06:44:24.586Z,7.89
2023-12-17T06:49:48.612Z,7.85
2023-12-17T06:55:12.088Z,7.82
2023-12-17T07:00:36.482Z,7.83
2023-12-17T07:06:00.261Z,7.80
2023-12-17T07:11:24.616Z,7.79
2023-12-17T07:16:48.437Z,7.78
2023-12-17T07:22:10.825Z,7.81
2023-12-17T07:27:33.135Z,7.79
2023-12-17T07:32:55.625Z,7.77
2023-12-17T07:38:18.339Z,7.74
2023-12-17T07:43:40.713Z,7.75
2023-12-17T07:49:03.259Z,7.73
2023-12-17T07:54:25.758Z,7.74
2023-12-17T07:59:49.106Z,7.72
2023-12-17T08:05:12.014Z,7.72
2023-12-17T08:10:34.568Z,7.71
2023-12-17T08:15:57.429Z,7.71
2023-12-17T08:21:19.971Z,7.77
2023-12-17T08:26:42.801Z,7.82
2023-12-17T08:32:05.350Z,7.80
2023-12-17T08:37:27.908Z,7.84
2023-12-17T08:42:51.285Z,7.86
2023-12-17T08:48:14.723Z,7.87
2023-12-17T08:53:37.621Z,7.90
2023-12-17T08:59:02.059Z,7.91
2023-12-17T09:04:24.876Z,7.92
2023-12-17T09:09:47.523Z,7.96
2023-12-17T09:15:10.926Z,7.98
2023-12-17T09:20:34.310Z,7.99
2023-12-17T09:25:58.745Z,8.00
2023-12-17T09:31:21.768Z,8.03
2023-12-17T09:36:44.502Z,8.09
2023-12-17T09:42:08.135Z,8.14
2023-12-17T09:47:30.883Z,8.18
2023-12-17T09:52:56.017Z,8.19
2023-12-17T09:58:21.001Z,8.20
2023-12-17T10:03:44.689Z,8.23
2023-12-17T10:09:09.925Z,8.30
2023-12-17T10:14:42.782Z,8.35
2023-12-17T10:20:12.870Z,8.35
2023-12-17T10:25:31.261Z,8.36
2023-12-17T10:30:54.886Z,8.41
2023-12-17T10:36:18.715Z,8.40
2023-12-17T10:41:42.371Z,8.42
2023-12-17T10:47:07.937Z,8.44
2023-12-17T10:52:30.626Z,8.45
2023-12-17T10:58:06.566Z,8.50
2023-12-17T11:03:30.846Z,8.52
2023-12-17T11:08:53.518Z,8.54
2023-12-17T11:14:17.886Z,8.56
2023-12-17T11:19:40.405Z,8.57
2023-12-17T11:25:05.564Z,8.56
2023-12-17T11:30:47.383Z,8.54
2023-12-17T11:36:11.976Z,8.54
2023-12-17T11:41:34.346Z,8.55
2023-12-17T11:46:58.867Z,8.55
2023-12-17T11:52:24.616Z,8.56
2023-12-17T11:57:47.398Z,8.57
2023-12-17T12:03:12.320Z,8.57
2023-12-17T12:08:37.422Z,8.55
2023-12-17T12:14:04.166Z,8.56
2023-12-17T12:19:29.788Z,8.58
2023-12-17T12:24:50.726Z,8.58
2023-12-17T12:30:17.028Z,8.57
2023-12-17T12:35:41.127Z,8.56
2023-12-17T12:41:05.464Z,8.55
2023-12-17T12:46:28.111Z,8.56
2023-12-17T12:51:51.202Z,8.59
2023-12-17T12:57:14.277Z,8.58
2023-12-17T13:02:38.222Z,8.60
2023-12-17T13:08:00.861Z,8.60
2023-12-17T13:13:23.572Z,8.63
2023-12-17T13:18:52.685Z,8.65
2023-12-17T13:24:11.370Z,8.64
2023-12-17T13:29:38.810Z,8.65
2023-12-17T13:35:01.971Z,8.64
2023-12-17T13:40:25.785Z,8.64
2023-12-17T13:46:00.176Z,8.66
2023-12-17T13:51:23.163Z,8.67
2023-12-17T13:56:46.801Z,8.68
2023-12-17T14:02:09.374Z,8.70
2023-12-17T14:07:33.257Z,8.68
2023-12-17T14:12:56.451Z,8.69
2023-12-17T14:18:19.752Z,8.71
2023-12-17T14:23:42.511Z,8.72
2023-12-17T14:29:04.929Z,8.70
2023-12-17T14:34:27.375Z,8.69
2023-12-17T14:39:50.192Z,8.70
2023-12-17T14:45:12.875Z,8.66
2023-12-17T14:50:35.466Z,8.65
2023-12-17T14:55:57.873Z,8.62
2023-12-17T15:01:25.242Z,8.63
2023-12-17T15:06:44.462Z,8.59
2023-12-17T15:12:08.441Z,8.58
2023-12-17T15:17:34.176Z,8.56
2023-12-17T15:22:56.951Z,8.55
2023-12-17T15:28:19.392Z,8.57
2023-12-17T15:33:42.127Z,8.53
2023-12-17T15:39:05.205Z,8.51
2023-12-17T15:44:27.627Z,8.50
2023-12-17T15:49:50.314Z,8.49
2023-12-17T15:55:12.929Z,8.45
2023-12-17T16:00:35.924Z,8.42
2023-12-17T16:05:58.824Z,8.41
2023-12-17T16:11:21.618Z,8.37
2023-12-17T16:16:47.381Z,8.33
2023-12-17T16:22:30.274Z,8.29
2023-12-17T16:27:56.567Z,8.25
2023-12-17T16:33:19.682Z,8.23
2023-12-17T16:38:42.291Z,8.25
2023-12-17T16:44:05.252Z,8.20
2023-12-17T16:49:27.650Z,8.18
2023-12-17T16:54:50.807Z,8.19
2023-12-17T17:00:14.037Z,8.16
2023-12-17T17:05:36.405Z,8.12
2023-12-17T17:11:07.651Z,8.10
2023-12-17T17:16:27.731Z,8.09
2023-12-17T17:21:52.588Z,8.08
2023-12-17T17:27:33.661Z,8.04
2023-12-17T17:32:56.571Z,7.99
2023-12-17T17:38:19.437Z,7.94
2023-12-17T17:43:42.557Z,7.93
2023-12-17T17:49:05.320Z,7.87
2023-12-17T17:54:28.128Z,7.80
2023-12-17T17:59:51.965Z,7.74
2023-12-17T18:05:15.298Z,7.72
2023-12-17T18:10:37.731Z,7.67
2023-12-17T18:16:00.538Z,7.63
2023-12-17T18:21:24.398Z,7.63
2023-12-17T18:26:47.879Z,7.58
2023-12-17T18:32:10.908Z,7.55
2023-12-17T18:37:33.630Z,7.50
2023-12-17T18:42:58.186Z,7.44
2023-12-17T18:48:21.224Z,7.39
2023-12-17T18:53:45.243Z,7.34
2023-12-17T18:59:07.889Z,7.30
2023-12-17T19:04:30.912Z,7.24
2023-12-17T19:09:54.807Z,7.20
2023-12-17T19:15:18.142Z,7.13
2023-12-17T19:20:44.029Z,7.04
2023-12-17T19:26:07.197Z,6.94
2023-12-17T19:31:33.432Z,6.86
2023-12-17T19:36:56.291Z,6.78
2023-12-17T19:42:20.236Z,6.72
2023-12-17T19:47:44.321Z,6.68
2023-12-17T19:53:07.315Z,6.64
2023-12-17T19:58:29.957Z,6.62
2023-12-17T20:03:54.095Z,6.57
2023-12-17T20:09:17.223Z,6.53
2023-12-17T20:14:41.048Z,6.49
2023-12-17T20:20:04.808Z,6.48
2023-12-17T20:25:28.068Z,6.48
2023-12-17T20:30:52.236Z,6.41
2023-12-17T20:36:17.982Z,6.38
2023-12-17T20:41:41.182Z,6.34
2023-12-17T20:47:03.688Z,6.30
2023-12-17T20:52:26.292Z,6.28
2023-12-17T20:57:48.787Z,6.22
2023-12-17T21:03:11.578Z,6.19
2023-12-17T21:08:34.406Z,6.15
2023-12-17T21:13:56.961Z,6.12
2023-12-17T21:19:20.490Z,6.11
2023-12-17T21:24:44.204Z,6.10
2023-12-17T21:30:08.180Z,6.09
2023-12-17T21:35:32.775Z,6.10
2023-12-17T21:40:55.942Z,6.11
2023-12-17T21:46:18.763Z,6.11
2023-12-17T21:51:42.298Z,6.14
2023-12-17T21:57:17.709Z,6.20
2023-12-17T22:02:33.557Z,6.25
2023-12-17T22:07:56.434Z,6.26
2023-12-17T22:13:19.611Z,6.31
2023-12-17T22:18:42.885Z,6.37
2023-12-17T22:24:06.033Z,6.45
2023-12-17T22:29:28.578Z,6.53
2023-12-17T22:34:51.494Z,6.60
2023-12-17T22:40:14.932Z,6.66
2023-12-17T22:45:38.329Z,6.66
2023-12-17T22:51:00.764Z,6.69
2023-12-17T22:56:23.329Z,6.69
2023-12-17T23:01:46.320Z,6.67
2023-12-17T23:07:08.809Z,6.66
2023-12-17T23:12:31.654Z,6.62
2023-12-17T23:17:54.059Z,6.59
2023-12-17T23:23:16.570Z,6.58
2023-12-17T23:28:38.955Z,6.57
2023-12-17T23:34:01.491Z,6.59
2023-12-17T23:39:24.410Z,6.60
2023-12-17T23:44:46.755Z,6.60
2023-12-17T23:50:09.425Z,6.61
2023-12-17T23:55:31.878Z,6.61
